sensor_id;sensor_type;location;lat;lon;timestamp;pressure;altitude;pressure_sealevel;temperature;humidity
43878;BME280;29815;48.184;11.268;2024-01-15T00:02:05;94309.88;;;-0.50;100.00
43878;BME280;29815;48.184;11.268;2024-01-15T00:04:36;94317.44;;;-0.54;100.00
43878;BME280;29815;48.184;11.268;2024-01-15T00:07:05;94317.25;;;-0.64;100.00
43878;BME280;29815;48.184;11.268;2024-01-15T00:09:36;94309.44;;;-0.71;100.00
43878;BME280;29815;48.184;11.268;2024-01-15T00:12:06;94294.16;;;-0.80;100.00
43878;BME280;29815;48.184;11.268;2024-01-15T00:14:36;94311.97;;;-0.87;100.00
43878;BME280;29815;48.184;11.268;2024-01-15T00:17:05;94312.66;;;-0.92;100.00
43878;BME280;29815;48.184;11.268;2024-01-15T00:19:35;94320.22;;;-0.95;100.00
43878;BME280;29815;48.184;11.268;2024-01-15T00:22:05;94318.28;;;-0.88;100.00
43878;BME280;29815;48.184;11.268;2024-01-15T00:24:34;94314.38;;;-0.86;100.00
43878;BME280;29815;48.184;11.268;2024-01-15T00:27:05;94325.31;;;-0.82;100.00
43878;BME280;29815;48.184;11.268;2024-01-15T00:29:34;94318.41;;;-0.83;100.00
43878;BME280;29815;48.184;11.268;2024-01-15T00:32:04;94320.56;;;-0.80;100.00
43878;BME280;29815;48.184;11.268;2024-01-15T00:34:34;94321.72;;;-0.88;100.00
43878;BME280;29815;48.184;11.268;2024-01-15T00:37:04;94326.44;;;-0.90;100.00
43878;BME280;29815;48.184;11.268;2024-01-15T00:39:34;94330.31;;;-1.04;100.00
43878;BME280;29815;48.184;11.268;2024-01-15T00:42:05;94339.41;;;-1.12;100.00
43878;BME280;29815;48.184;11.268;2024-01-15T00:44:35;94344.88;;;-1.25;100.00
43878;BME280;29815;48.184;11.268;2024-01-15T00:47:04;94347.13;;;-1.40;100.00
43878;BME280;29815;48.184;11.268;2024-01-15T00:49:34;94361.44;;;-1.48;100.00
43878;BME280;29815;48.184;11.268;2024-01-15T00:52:03;94355.22;;;-1.53;100.00
43878;BME280;29815;48.184;11.268;2024-01-15T00:54:33;94356.56;;;-1.62;100.00
43878;BME280;29815;48.184;11.268;2024-01-15T00:57:02;94364.13;;;-1.66;100.00
43878;BME280;29815;48.184;11.268;2024-01-15T00:59:33;94358.38;;;-1.63;100.00
43878;BME280;29815;48.184;11.268;2024-01-15T01:02:03;94367.34;;;-1.64;100.00
43878;BME280;29815;48.184;11.268;2024-01-15T01:04:32;94368.72;;;-1.61;100.00
43878;BME280;29815;48.184;11.268;2024-01-15T01:07:02;94364.13;;;-1.66;100.00
43878;BME280;29815;48.184;11.268;2024-01-15T01:09:31;94355.75;;;-1.63;100.00
43878;BME280;29815;48.184;11.268;2024-01-15T01:12:01;94358.63;;;-1.64;100.00
43878;BME280;29815;48.184;11.268;2024-01-15T01:14:31;94355.06;;;-1.70;100.00
43878;BME280;29815;48.184;11.268;2024-01-15T01:17:01;94357.56;;;-1.75;100.00
43878;BME280;29815;48.184;11.268;2024-01-15T01:19:30;94356.16;;;-1.78;100.00
43878;BME280;29815;48.184;11.268;2024-01-15T01:22:00;94353.66;;;-1.73;100.00
43878;BME280;29815;48.184;11.268;2024-01-15T01:24:29;94352.78;;;-1.66;100.00
43878;BME280;29815;48.184;11.268;2024-01-15T01:26:58;94343.59;;;-1.64;100.00
43878;BME280;29815;48.184;11.268;2024-01-15T01:29:27;94354.63;;;-1.67;100.00
43878;BME280;29815;48.184;11.268;2024-01-15T01:31:58;94351.97;;;-1.67;100.00
43878;BME280;29815;48.184;11.268;2024-01-15T01:34:27;94357.47;;;-1.68;100.00
43878;BME280;29815;48.184;11.268;2024-01-15T01:37:01;94361.34;;;-1.71;100.00
43878;BME280;29815;48.184;11.268;2024-01-15T01:39:30;94373.59;;;-1.77;100.00
43878;BME280;29815;48.184;11.268;2024-01-15T01:42:00;94368.31;;;-1.77;100.00
43878;BME280;29815;48.184;11.268;2024-01-15T01:44:29;94359.69;;;-1.84;100.00
43878;BME280;29815;48.184;11.268;2024-01-15T01:47:00;94356.09;;;-1.89;100.00
43878;BME280;29815;48.184;11.268;2024-01-15T01:49:30;94361.34;;;-2.01;100.00
43878;BME280;29815;48.184;11.268;2024-01-15T01:52:00;94370.84;;;-2.00;100.00
43878;BME280;29815;48.184;11.268;2024-01-15T01:54:31;94368.50;;;-2.08;100.00
43878;BME280;29815;48.184;11.268;2024-01-15T01:57:01;94364.31;;;-2.16;100.00
43878;BME280;29815;48.184;11.268;2024-01-15T01:59:32;94363.75;;;-2.18;100.00
43878;BME280;29815;48.184;11.268;2024-01-15T02:02:05;94367.66;;;-2.20;100.00
43878;BME280;29815;48.184;11.268;2024-01-15T02:04:34;94360.97;;;-2.23;100.00
43878;BME280;29815;48.184;11.268;2024-01-15T02:07:05;94364.50;;;-2.29;100.00
43878;BME280;29815;48.184;11.268;2024-01-15T02:09:34;94368.66;;;-2.40;100.00
43878;BME280;29815;48.184;11.268;2024-01-15T02:12:04;94374.50;;;-2.38;100.00
43878;BME280;29815;48.184;11.268;2024-01-15T02:14:34;94373.75;;;-2.45;100.00
43878;BME280;29815;48.184;11.268;2024-01-15T02:17:07;94376.47;;;-2.51;100.00
43878;BME280;29815;48.184;11.268;2024-01-15T02:19:36;94383.56;;;-2.52;100.00
43878;BME280;29815;48.184;11.268;2024-01-15T02:22:07;94374.94;;;-2.59;100.00
43878;BME280;29815;48.184;11.268;2024-01-15T02:24:38;94375.56;;;-2.63;100.00
43878;BME280;29815;48.184;11.268;2024-01-15T02:27:08;94375.19;;;-2.67;100.00
43878;BME280;29815;48.184;11.268;2024-01-15T02:29:38;94386.59;;;-2.73;100.00
43878;BME280;29815;48.184;11.268;2024-01-15T02:32:08;94385.56;;;-2.72;100.00
43878;BME280;29815;48.184;11.268;2024-01-15T02:34:38;94382.84;;;-2.84;100.00
43878;BME280;29815;48.184;11.268;2024-01-15T02:37:07;94390.22;;;-2.92;100.00
43878;BME280;29815;48.184;11.268;2024-01-15T02:39:38;94379.91;;;-2.94;100.00
43878;BME280;29815;48.184;11.268;2024-01-15T02:42:08;94377.25;;;-2.94;100.00
43878;BME280;29815;48.184;11.268;2024-01-15T02:44:37;94368.19;;;-2.98;100.00
43878;BME280;29815;48.184;11.268;2024-01-15T02:47:06;94379.31;;;-2.96;100.00
43878;BME280;29815;48.184;11.268;2024-01-15T02:49:36;94380.09;;;-2.95;100.00
43878;BME280;29815;48.184;11.268;2024-01-15T02:52:05;94379.25;;;-2.89;100.00
43878;BME280;29815;48.184;11.268;2024-01-15T02:54:35;94383.72;;;-2.90;100.00
43878;BME280;29815;48.184;11.268;2024-01-15T02:57:05;94376.19;;;-2.86;100.00
43878;BME280;29815;48.184;11.268;2024-01-15T02:59:35;94377.25;;;-2.94;100.00
43878;BME280;29815;48.184;11.268;2024-01-15T03:02:04;94381.06;;;-2.90;100.00
43878;BME280;29815;48.184;11.268;2024-01-15T03:04:33;94379.47;;;-2.91;100.00
43878;BME280;29815;48.184;11.268;2024-01-15T03:07:03;94370.16;;;-2.93;100.00
43878;BME280;29815;48.184;11.268;2024-01-15T03:09:32;94375.59;;;-2.88;100.00
43878;BME280;29815;48.184;11.268;2024-01-15T03:12:02;94378.44;;;-2.90;100.00
43878;BME280;29815;48.184;11.268;2024-01-15T03:14:33;94377.63;;;-2.90;100.00
43878;BME280;29815;48.184;11.268;2024-01-15T03:17:02;94368.38;;;-2.99;100.00
43878;BME280;29815;48.184;11.268;2024-01-15T03:19:34;94367.88;;;-3.08;100.00
43878;BME280;29815;48.184;11.268;2024-01-15T03:22:04;94376.78;;;-3.09;100.00
43878;BME280;29815;48.184;11.268;2024-01-15T03:24:36;94372.53;;;-3.10;100.00
43878;BME280;29815;48.184;11.268;2024-01-15T03:27:05;94368.31;;;-3.11;100.00
43878;BME280;29815;48.184;11.268;2024-01-15T03:29:36;94375.66;;;-3.20;100.00
43878;BME280;29815;48.184;11.268;2024-01-15T03:32:05;94376.88;;;-3.22;100.00
43878;BME280;29815;48.184;11.268;2024-01-15T03:34:34;94371.22;;;-3.26;100.00
43878;BME280;29815;48.184;11.268;2024-01-15T03:37:04;94373.44;;;-3.23;100.00
43878;BME280;29815;48.184;11.268;2024-01-15T03:39:33;94364.31;;;-3.20;100.00
43878;BME280;29815;48.184;11.268;2024-01-15T03:42:03;94360.72;;;-3.26;100.00
43878;BME280;29815;48.184;11.268;2024-01-15T03:44:33;94364.09;;;-3.19;100.00
43878;BME280;29815;48.184;11.268;2024-01-15T03:47:04;94354.81;;;-3.21;100.00
43878;BME280;29815;48.184;11.268;2024-01-15T03:49:33;94365.53;;;-3.23;100.00
43878;BME280;29815;48.184;11.268;2024-01-15T03:52:03;94373.59;;;-3.18;100.00
43878;BME280;29815;48.184;11.268;2024-01-15T03:54:33;94359.84;;;-3.20;100.00
43878;BME280;29815;48.184;11.268;2024-01-15T03:57:03;94364.47;;;-3.15;100.00
43878;BME280;29815;48.184;11.268;2024-01-15T03:59:32;94376.38;;;-3.06;100.00
43878;BME280;29815;48.184;11.268;2024-01-15T04:02:04;94367.03;;;-3.02;100.00
43878;BME280;29815;48.184;11.268;2024-01-15T04:04:33;94361.50;;;-3.00;100.00
43878;BME280;29815;48.184;11.268;2024-01-15T04:07:02;94356.84;;;-2.98;100.00
43878;BME280;29815;48.184;11.268;2024-01-15T04:09:32;94352.25;;;-3.03;100.00
43878;BME280;29815;48.184;11.268;2024-01-15T04:12:01;94358.25;;;-2.96;100.00
43878;BME280;29815;48.184;11.268;2024-01-15T04:14:31;94354.81;;;-2.96;100.00
43878;BME280;29815;48.184;11.268;2024-01-15T04:17:00;94339.38;;;-2.93;100.00
43878;BME280;29815;48.184;11.268;2024-01-15T04:19:30;94336.69;;;-2.86;100.00
43878;BME280;29815;48.184;11.268;2024-01-15T04:22:00;94333.03;;;-2.85;100.00
43878;BME280;29815;48.184;11.268;2024-01-15T04:24:31;94339.88;;;-2.78;100.00
43878;BME280;29815;48.184;11.268;2024-01-15T04:27:01;94343.78;;;-2.87;100.00
43878;BME280;29815;48.184;11.268;2024-01-15T04:29:30;94342.88;;;-2.74;100.00
43878;BME280;29815;48.184;11.268;2024-01-15T04:31:59;94342.06;;;-2.75;100.00
43878;BME280;29815;48.184;11.268;2024-01-15T04:34:28;94347.47;;;-2.69;100.00
43878;BME280;29815;48.184;11.268;2024-01-15T04:36:59;94351.34;;;-2.72;100.00
43878;BME280;29815;48.184;11.268;2024-01-15T04:39:29;94352.81;;;-2.76;100.00
43878;BME280;29815;48.184;11.268;2024-01-15T04:41:58;94345.06;;;-2.71;100.00
43878;BME280;29815;48.184;11.268;2024-01-15T04:44:27;94352.72;;;-2.69;100.00
43878;BME280;29815;48.184;11.268;2024-01-15T04:46:57;94361.97;;;-2.60;100.00
43878;BME280;29815;48.184;11.268;2024-01-15T04:49:25;94368.63;;;-2.58;100.00
43878;BME280;29815;48.184;11.268;2024-01-15T04:51:55;94339.72;;;-2.64;100.00
43878;BME280;29815;48.184;11.268;2024-01-15T04:54:25;94343.16;;;-2.64;100.00
43878;BME280;29815;48.184;11.268;2024-01-15T04:56:55;94335.03;;;-2.62;100.00
43878;BME280;29815;48.184;11.268;2024-01-15T04:59:24;94348.44;;;-2.64;100.00
43878;BME280;29815;48.184;11.268;2024-01-15T05:01:54;94356.28;;;-2.57;100.00
43878;BME280;29815;48.184;11.268;2024-01-15T05:04:23;94353.44;;;-2.56;100.00
43878;BME280;29815;48.184;11.268;2024-01-15T05:06:53;94347.50;;;-2.51;100.00
43878;BME280;29815;48.184;11.268;2024-01-15T05:09:25;94358.03;;;-2.51;100.00
43878;BME280;29815;48.184;11.268;2024-01-15T05:11:59;94346.47;;;-2.50;100.00
43878;BME280;29815;48.184;11.268;2024-01-15T05:14:28;94343.97;;;-2.45;100.00
43878;BME280;29815;48.184;11.268;2024-01-15T05:16:58;94335.50;;;-2.47;100.00
43878;BME280;29815;48.184;11.268;2024-01-15T05:19:27;94337.91;;;-2.46;100.00
43878;BME280;29815;48.184;11.268;2024-01-15T05:21:57;94349.13;;;-2.50;100.00
43878;BME280;29815;48.184;11.268;2024-01-15T05:24:27;94359.66;;;-2.50;100.00
43878;BME280;29815;48.184;11.268;2024-01-15T05:26:56;94347.50;;;-2.51;100.00
43878;BME280;29815;48.184;11.268;2024-01-15T05:29:26;94352.34;;;-2.48;100.00
43878;BME280;29815;48.184;11.268;2024-01-15T05:31:55;94354.97;;;-2.48;100.00
43878;BME280;29815;48.184;11.268;2024-01-15T05:34:29;94351.44;;;-2.42;100.00
43878;BME280;29815;48.184;11.268;2024-01-15T05:36:58;94352.03;;;-2.40;100.00
43878;BME280;29815;48.184;11.268;2024-01-15T05:39:29;94356.94;;;-2.44;100.00
43878;BME280;29815;48.184;11.268;2024-01-15T05:41:59;94357.88;;;-2.38;100.00
43878;BME280;29815;48.184;11.268;2024-01-15T05:44:28;94361.91;;;-2.35;100.00
43878;BME280;29815;48.184;11.268;2024-01-15T05:46:58;94363.75;;;-2.36;100.00
43878;BME280;29815;48.184;11.268;2024-01-15T05:49:27;94360.31;;;-2.36;100.00
43878;BME280;29815;48.184;11.268;2024-01-15T05:51:56;94355.31;;;-2.45;100.00
43878;BME280;29815;48.184;11.268;2024-01-15T05:54:25;94350.78;;;-2.38;100.00
43878;BME280;29815;48.184;11.268;2024-01-15T05:56:56;94356.38;;;-2.27;100.00
43878;BME280;29815;48.184;11.268;2024-01-15T05:59:25;94343.25;;;-2.34;100.00
43878;BME280;29815;48.184;11.268;2024-01-15T06:01:56;94345.88;;;-2.34;100.00
43878;BME280;29815;48.184;11.268;2024-01-15T06:04:25;94349.19;;;-2.39;100.00
43878;BME280;29815;48.184;11.268;2024-01-15T06:06:55;94337.25;;;-2.41;100.00
43878;BME280;29815;48.184;11.268;2024-01-15T06:09:24;94331.09;;;-2.35;100.00
43878;BME280;29815;48.184;11.268;2024-01-15T06:11:54;94334.31;;;-2.33;100.00
43878;BME280;29815;48.184;11.268;2024-01-15T06:14:24;94337.78;;;-2.32;100.00
43878;BME280;29815;48.184;11.268;2024-01-15T06:16:54;94340.03;;;-2.36;100.00
43878;BME280;29815;48.184;11.268;2024-01-15T06:19:23;94342.88;;;-2.38;100.00
43878;BME280;29815;48.184;11.268;2024-01-15T06:21:52;94343.69;;;-2.37;100.00
43878;BME280;29815;48.184;11.268;2024-01-15T06:24:22;94343.69;;;-2.37;100.00
43878;BME280;29815;48.184;11.268;2024-01-15T06:26:51;94337.84;;;-2.39;100.00
43878;BME280;29815;48.184;11.268;2024-01-15T06:29:21;94339.28;;;-2.43;100.00
43878;BME280;29815;48.184;11.268;2024-01-15T06:31:51;94336.22;;;-2.40;100.00
43878;BME280;29815;48.184;11.268;2024-01-15T06:34:21;94338.41;;;-2.37;100.00
43878;BME280;29815;48.184;11.268;2024-01-15T06:36:50;94340.47;;;-2.39;100.00
43878;BME280;29815;48.184;11.268;2024-01-15T06:39:20;94342.06;;;-2.38;100.00
43878;BME280;29815;48.184;11.268;2024-01-15T06:41:50;94340.91;;;-2.42;100.00
43878;BME280;29815;48.184;11.268;2024-01-15T06:44:19;94348.53;;;-2.34;100.00
43878;BME280;29815;48.184;11.268;2024-01-15T06:46:50;94354.00;;;-2.35;100.00
43878;BME280;29815;48.184;11.268;2024-01-15T06:49:19;94347.56;;;-2.40;100.00
43878;BME280;29815;48.184;11.268;2024-01-15T06:51:49;94351.22;;;-2.41;100.00
43878;BME280;29815;48.184;11.268;2024-01-15T06:54:18;94340.47;;;-2.39;100.00
43878;BME280;29815;48.184;11.268;2024-01-15T06:56:48;94346.75;;;-2.40;100.00
43878;BME280;29815;48.184;11.268;2024-01-15T06:59:17;94340.31;;;-2.44;100.00
43878;BME280;29815;48.184;11.268;2024-01-15T07:01:47;94346.53;;;-2.39;100.00
43878;BME280;29815;48.184;11.268;2024-01-15T07:04:18;94331.31;;;-2.36;100.00
43878;BME280;29815;48.184;11.268;2024-01-15T07:06:47;94319.69;;;-2.29;100.00
43878;BME280;29815;48.184;11.268;2024-01-15T07:09:17;94329.00;;;-2.26;100.00
43878;BME280;29815;48.184;11.268;2024-01-15T07:11:46;94331.84;;;-2.28;100.00
43878;BME280;29815;48.184;11.268;2024-01-15T07:14:15;94331.47;;;-2.31;100.00
43878;BME280;29815;48.184;11.268;2024-01-15T07:16:45;94334.84;;;-2.24;100.00
43878;BME280;29815;48.184;11.268;2024-01-15T07:19:15;94329.88;;;-2.32;100.00
43878;BME280;29815;48.184;11.268;2024-01-15T07:21:46;94333.59;;;-2.22;100.00
43878;BME280;29815;48.184;11.268;2024-01-15T07:24:15;94330.97;;;-2.22;100.00
43878;BME280;29815;48.184;11.268;2024-01-15T07:26:45;94328.91;;;-2.20;100.00
43878;BME280;29815;48.184;11.268;2024-01-15T07:29:14;94331.00;;;-2.10;100.00
43878;BME280;29815;48.184;11.268;2024-01-15T07:31:48;94323.69;;;-2.08;100.00
43878;BME280;29815;48.184;11.268;2024-01-15T07:34:18;94319.88;;;-2.12;100.00
43878;BME280;29815;48.184;11.268;2024-01-15T07:36:49;94319.53;;;-2.16;100.00
43878;BME280;29815;48.184;11.268;2024-01-15T07:39:18;94324.94;;;-2.11;100.00
43878;BME280;29815;48.184;11.268;2024-01-15T07:41:48;94327.34;;;-2.09;100.00
43878;BME280;29815;48.184;11.268;2024-01-15T07:44:17;94321.72;;;-2.13;100.00
43878;BME280;29815;48.184;11.268;2024-01-15T07:46:47;94336.50;;;-2.12;100.00
43878;BME280;29815;48.184;11.268;2024-01-15T07:49:16;94332.63;;;-2.09;100.00
43878;BME280;29815;48.184;11.268;2024-01-15T07:51:45;94327.72;;;-2.06;100.00
43878;BME280;29815;48.184;11.268;2024-01-15T07:54:16;94329.56;;;-2.06;100.00
43878;BME280;29815;48.184;11.268;2024-01-15T07:56:55;94321.78;;;-2.01;100.00
43878;BME280;29815;48.184;11.268;2024-01-15T07:59:25;94325.22;;;-2.00;100.00
43878;BME280;29815;48.184;11.268;2024-01-15T08:01:54;94332.56;;;-2.02;100.00
43878;BME280;29815;48.184;11.268;2024-01-15T08:04:24;94333.16;;;-1.89;100.00
43878;BME280;29815;48.184;11.268;2024-01-15T08:06:53;94328.38;;;-1.92;100.00
43878;BME280;29815;48.184;11.268;2024-01-15T08:09:24;94315.19;;;-1.92;100.00
43878;BME280;29815;48.184;11.268;2024-01-15T08:11:53;94307.38;;;-1.87;100.00
43878;BME280;29815;48.184;11.268;2024-01-15T08:14:23;94317.34;;;-1.89;100.00
43878;BME280;29815;48.184;11.268;2024-01-15T08:16:52;94320.13;;;-1.84;100.00
43878;BME280;29815;48.184;11.268;2024-01-15T08:19:21;94320.78;;;-1.88;100.00
43878;BME280;29815;48.184;11.268;2024-01-15T08:21:51;94323.44;;;-1.88;100.00
43878;BME280;29815;48.184;11.268;2024-01-15T08:24:21;94323.22;;;-1.87;100.00
43878;BME280;29815;48.184;11.268;2024-01-15T08:26:52;94320.78;;;-1.88;100.00
43878;BME280;29815;48.184;11.268;2024-01-15T08:29:21;94306.81;;;-1.89;100.00
43878;BME280;29815;48.184;11.268;2024-01-15T08:31:52;94304.31;;;-1.84;100.00
43878;BME280;29815;48.184;11.268;2024-01-15T08:34:22;94313.81;;;-1.83;100.00
43878;BME280;29815;48.184;11.268;2024-01-15T08:36:51;94317.13;;;-1.87;100.00
43878;BME280;29815;48.184;11.268;2024-01-15T08:39:20;94318.28;;;-1.83;100.00
43878;BME280;29815;48.184;11.268;2024-01-15T08:41:51;94311.63;;;-1.86;100.00
43878;BME280;29815;48.184;11.268;2024-01-15T08:44:20;94306.81;;;-1.89;100.00
43878;BME280;29815;48.184;11.268;2024-01-15T08:46:50;94314.19;;;-1.79;100.00
43878;BME280;29815;48.184;11.268;2024-01-15T08:49:19;94318.56;;;-1.73;100.00
43878;BME280;29815;48.184;11.268;2024-01-15T08:51:48;94318.56;;;-1.73;100.00
43878;BME280;29815;48.184;11.268;2024-01-15T08:54:18;94314.69;;;-1.71;100.00
43878;BME280;29815;48.184;11.268;2024-01-15T08:56:47;94318.81;;;-1.63;100.00
43878;BME280;29815;48.184;11.268;2024-01-15T08:59:17;94319.41;;;-1.61;100.00
43878;BME280;29815;48.184;11.268;2024-01-15T09:01:52;94332.50;;;-1.54;100.00
43878;BME280;29815;48.184;11.268;2024-01-15T09:04:21;94328.47;;;-1.57;100.00
43878;BME280;29815;48.184;11.268;2024-01-15T09:06:51;94314.84;;;-1.54;100.00
43878;BME280;29815;48.184;11.268;2024-01-15T09:09:20;94324.72;;;-1.49;100.00
43878;BME280;29815;48.184;11.268;2024-01-15T09:11:50;94331.16;;;-1.45;100.00
43878;BME280;29815;48.184;11.268;2024-01-15T09:14:20;94320.69;;;-1.52;100.00
43878;BME280;29815;48.184;11.268;2024-01-15T09:17:04;94316.38;;;-1.46;100.00
43878;BME280;29815;48.184;11.268;2024-01-15T09:19:33;94315.69;;;-1.42;100.00
43878;BME280;29815;48.184;11.268;2024-01-15T09:22:03;94313.41;;;-1.38;100.00
43878;BME280;29815;48.184;11.268;2024-01-15T09:24:33;94313.97;;;-1.36;100.00
43878;BME280;29815;48.184;11.268;2024-01-15T09:27:02;94324.84;;;-1.44;100.00
43878;BME280;29815;48.184;11.268;2024-01-15T09:29:33;94320.16;;;-1.42;100.00
43878;BME280;29815;48.184;11.268;2024-01-15T09:32:05;94340.72;;;-1.32;100.00
43878;BME280;29815;48.184;11.268;2024-01-15T09:34:35;94326.94;;;-1.34;100.00
43878;BME280;29815;48.184;11.268;2024-01-15T09:37:04;94326.72;;;-1.33;100.00
43878;BME280;29815;48.184;11.268;2024-01-15T09:39:34;94323.16;;;-1.27;100.00
43878;BME280;29815;48.184;11.268;2024-01-15T09:42:03;94325.47;;;-1.19;100.00
43878;BME280;29815;48.184;11.268;2024-01-15T09:44:34;94329.06;;;-1.13;100.00
43878;BME280;29815;48.184;11.268;2024-01-15T09:47:04;94328.34;;;-1.09;100.00
43878;BME280;29815;48.184;11.268;2024-01-15T09:49:34;94318.59;;;-1.08;100.00
43878;BME280;29815;48.184;11.268;2024-01-15T09:52:05;94321.00;;;-1.07;100.00
43878;BME280;29815;48.184;11.268;2024-01-15T09:54:39;94314.69;;;-1.17;100.00
43878;BME280;29815;48.184;11.268;2024-01-15T09:57:08;94317.56;;;-1.07;100.00
43878;BME280;29815;48.184;11.268;2024-01-15T09:59:39;94309.19;;;-1.04;100.00
43878;BME280;29815;48.184;11.268;2024-01-15T10:02:10;94301.50;;;-0.94;100.00
43878;BME280;29815;48.184;11.268;2024-01-15T10:04:45;94304.38;;;-0.95;100.00
43878;BME280;29815;48.184;11.268;2024-01-15T10:07:16;94311.63;;;-0.91;100.00
43878;BME280;29815;48.184;11.268;2024-01-15T10:09:47;94308.53;;;-0.88;100.00
43878;BME280;29815;48.184;11.268;2024-01-15T10:12:16;94308.88;;;-0.96;100.00
43878;BME280;29815;48.184;11.268;2024-01-15T10:14:47;94301.06;;;-0.91;100.00
43878;BME280;29815;48.184;11.268;2024-01-15T10:17:17;94291.63;;;-0.98;100.00
43878;BME280;29815;48.184;11.268;2024-01-15T10:19:46;94292.91;;;-0.89;100.00
43878;BME280;29815;48.184;11.268;2024-01-15T10:22:17;94296.00;;;-0.81;100.00
43878;BME280;29815;48.184;11.268;2024-01-15T10:24:47;94287.53;;;-0.83;100.00
43878;BME280;29815;48.184;11.268;2024-01-15T10:27:16;94288.06;;;-0.69;100.00
43878;BME280;29815;48.184;11.268;2024-01-15T10:29:47;94285.19;;;-0.68;100.00
43878;BME280;29815;48.184;11.268;2024-01-15T10:32:16;94283.34;;;-0.79;100.00
43878;BME280;29815;48.184;11.268;2024-01-15T10:34:46;94283.47;;;-0.74;100.00
43878;BME280;29815;48.184;11.268;2024-01-15T10:37:15;94279.44;;;-0.76;100.00
43878;BME280;29815;48.184;11.268;2024-01-15T10:39:46;94279.09;;;-0.80;100.00
43878;BME280;29815;48.184;11.268;2024-01-15T10:42:15;94259.59;;;-0.90;100.00
43878;BME280;29815;48.184;11.268;2024-01-15T10:44:47;94266.59;;;-0.96;100.00
43878;BME280;29815;48.184;11.268;2024-01-15T10:47:16;94266.84;;;-0.97;100.00
43878;BME280;29815;48.184;11.268;2024-01-15T10:49:46;94255.94;;;-1.01;100.00
43878;BME280;29815;48.184;11.268;2024-01-15T10:52:15;94250.78;;;-0.84;100.00
43878;BME280;29815;48.184;11.268;2024-01-15T10:54:44;94251.81;;;-0.85;100.00
43878;BME280;29815;48.184;11.268;2024-01-15T10:57:15;94245.16;;;-0.88;100.00
43878;BME280;29815;48.184;11.268;2024-01-15T10:59:46;94246.94;;;-0.77;100.00
43878;BME280;29815;48.184;11.268;2024-01-15T11:02:16;94232.47;;;-0.74;100.00
43878;BME280;29815;48.184;11.268;2024-01-15T11:04:45;94236.94;;;-0.63;100.00
43878;BME280;29815;48.184;11.268;2024-01-15T11:07:15;94247.94;;;-0.54;100.00
43878;BME280;29815;48.184;11.268;2024-01-15T11:09:45;94240.81;;;-0.54;100.00
43878;BME280;29815;48.184;11.268;2024-01-15T11:12:16;94236.84;;;-0.56;100.00
43878;BME280;29815;48.184;11.268;2024-01-15T11:14:49;94234.19;;;-0.56;100.00
43878;BME280;29815;48.184;11.268;2024-01-15T11:17:18;94235.22;;;-0.57;100.00
43878;BME280;29815;48.184;11.268;2024-01-15T11:19:48;94232.88;;;-0.54;100.00
43878;BME280;29815;48.184;11.268;2024-01-15T11:22:48;94223.69;;;-0.40;100.00
43878;BME280;29815;48.184;11.268;2024-01-15T11:25:18;94216.53;;;-0.27;100.00
43878;BME280;29815;48.184;11.268;2024-01-15T11:27:50;94215.00;;;-0.23;100.00
43878;BME280;29815;48.184;11.268;2024-01-15T11:30:24;94219.69;;;-0.14;100.00
43878;BME280;29815;48.184;11.268;2024-01-15T11:32:54;94216.09;;;-0.08;100.00
43878;BME280;29815;48.184;11.268;2024-01-15T11:38:44;94214.47;;;0.20;100.00
43878;BME280;29815;48.184;11.268;2024-01-15T11:44:54;94221.69;;;0.24;100.00
43878;BME280;29815;48.184;11.268;2024-01-15T11:55:19;94208.31;;;0.48;100.00
43878;BME280;29815;48.184;11.268;2024-01-15T11:57:52;94211.44;;;0.45;100.00
43878;BME280;29815;48.184;11.268;2024-01-15T12:00:23;94201.81;;;0.72;100.00
43878;BME280;29815;48.184;11.268;2024-01-15T12:07:32;94205.16;;;1.01;100.00
43878;BME280;29815;48.184;11.268;2024-01-15T12:15:01;94132.84;;;0.45;100.00
43878;BME280;29815;48.184;11.268;2024-01-15T12:22:28;94139.41;;;0.59;100.00
43878;BME280;29815;48.184;11.268;2024-01-15T12:25:08;94145.19;;;0.73;100.00
43878;BME280;29815;48.184;11.268;2024-01-15T12:27:37;94142.97;;;0.87;100.00
43878;BME280;29815;48.184;11.268;2024-01-15T12:30:10;94137.25;;;0.95;100.00
43878;BME280;29815;48.184;11.268;2024-01-15T12:32:41;94135.25;;;1.02;100.00
43878;BME280;29815;48.184;11.268;2024-01-15T12:35:10;94127.13;;;1.09;100.00
43878;BME280;29815;48.184;11.268;2024-01-15T12:37:40;94128.69;;;1.10;100.00
43878;BME280;29815;48.184;11.268;2024-01-15T12:40:10;94132.41;;;1.30;100.00
43878;BME280;29815;48.184;11.268;2024-01-15T12:42:40;94137.63;;;1.47;100.00
43878;BME280;29815;48.184;11.268;2024-01-15T12:45:12;94130.84;;;1.56;100.00
43878;BME280;29815;48.184;11.268;2024-01-15T12:47:42;94121.97;;;1.46;100.00
43878;BME280;29815;48.184;11.268;2024-01-15T12:50:11;94107.31;;;1.38;100.00
43878;BME280;29815;48.184;11.268;2024-01-15T12:52:47;94124.47;;;1.09;100.00
43878;BME280;29815;48.184;11.268;2024-01-15T12:55:16;94121.81;;;1.09;100.00
43878;BME280;29815;48.184;11.268;2024-01-15T12:57:46;94135.75;;;1.21;100.00
43878;BME280;29815;48.184;11.268;2024-01-15T13:00:17;94146.09;;;1.22;100.00
43878;BME280;29815;48.184;11.268;2024-01-15T13:02:47;94162.06;;;1.27;100.00
43878;BME280;29815;48.184;11.268;2024-01-15T13:05:17;94159.72;;;1.31;100.00
43878;BME280;29815;48.184;11.268;2024-01-15T13:07:47;94160.63;;;1.20;100.00
43878;BME280;29815;48.184;11.268;2024-01-15T13:10:16;94171.38;;;1.08;100.00
43878;BME280;29815;48.184;11.268;2024-01-15T13:12:45;94157.41;;;0.96;100.00
43878;BME280;29815;48.184;11.268;2024-01-15T13:15:16;94160.53;;;0.93;100.00
43878;BME280;29815;48.184;11.268;2024-01-15T13:17:46;94167.38;;;0.89;100.00
43878;BME280;29815;48.184;11.268;2024-01-15T13:20:15;94164.09;;;0.82;100.00
43878;BME280;29815;48.184;11.268;2024-01-15T13:22:44;94159.88;;;0.64;100.00
43878;BME280;29815;48.184;11.268;2024-01-15T13:25:14;94155.22;;;0.71;100.00